sensor_id;sensor_type;location;lat;lon;timestamp;temperature;humidity
70166;SHT30;57541;47.408;18.822;2023-04-01T00:00:24;9.54;98.00
70166;SHT30;57541;47.408;18.822;2023-04-01T00:00:57;9.48;97.79
70166;SHT30;57541;47.408;18.822;2023-04-01T00:01:29;9.47;97.94
70166;SHT30;57541;47.408;18.822;2023-04-01T00:02:00;9.43;98.01
70166;SHT30;57541;47.408;18.822;2023-04-01T00:02:32;9.34;98.10
70166;SHT30;57541;47.408;18.822;2023-04-01T00:03:04;9.35;98.23
70166;SHT30;57541;47.408;18.822;2023-04-01T00:03:36;9.37;98.16
70166;SHT30;57541;47.408;18.822;2023-04-01T00:04:08;9.34;98.24
70166;SHT30;57541;47.408;18.822;2023-04-01T00:04:40;9.34;98.14
70166;SHT30;57541;47.408;18.822;2023-04-01T00:05:13;9.31;98.10
70166;SHT30;57541;47.408;18.822;2023-04-01T00:05:45;9.27;98.29
70166;SHT30;57541;47.408;18.822;2023-04-01T00:06:17;9.31;98.25
70166;SHT30;57541;47.408;18.822;2023-04-01T00:06:49;9.24;98.28
70166;SHT30;57541;47.408;18.822;2023-04-01T00:07:23;9.19;98.25
70166;SHT30;57541;47.408;18.822;2023-04-01T00:08:01;9.16;98.26
70166;SHT30;57541;47.408;18.822;2023-04-01T00:08:33;9.14;98.51
70166;SHT30;57541;47.408;18.822;2023-04-01T00:09:04;9.12;98.44
70166;SHT30;57541;47.408;18.822;2023-04-01T00:09:36;9.14;98.36
70166;SHT30;57541;47.408;18.822;2023-04-01T00:10:10;9.09;98.27
70166;SHT30;57541;47.408;18.822;2023-04-01T00:10:42;9.09;98.44
70166;SHT30;57541;47.408;18.822;2023-04-01T00:11:14;9.09;98.36
70166;SHT30;57541;47.408;18.822;2023-04-01T00:11:46;9.07;98.47
70166;SHT30;57541;47.408;18.822;2023-04-01T00:12:18;9.09;98.41
70166;SHT30;57541;47.408;18.822;2023-04-01T00:12:49;9.07;98.41
70166;SHT30;57541;47.408;18.822;2023-04-01T00:13:21;9.07;98.42
70166;SHT30;57541;47.408;18.822;2023-04-01T00:13:53;9.02;98.51
70166;SHT30;57541;47.408;18.822;2023-04-01T00:14:26;9.02;98.60
70166;SHT30;57541;47.408;18.822;2023-04-01T00:14:58;8.97;98.58
70166;SHT30;57541;47.408;18.822;2023-04-01T00:15:29;8.93;98.75
70166;SHT30;57541;47.408;18.822;2023-04-01T00:16:02;8.96;98.77
70166;SHT30;57541;47.408;18.822;2023-04-01T00:16:50;8.97;98.97
70166;SHT30;57541;47.408;18.822;2023-04-01T00:17:22;8.96;98.84
70166;SHT30;57541;47.408;18.822;2023-04-01T00:17:54;8.96;98.87
70166;SHT30;57541;47.408;18.822;2023-04-01T00:18:26;8.97;98.77
70166;SHT30;57541;47.408;18.822;2023-04-01T00:18:58;9.02;98.78
70166;SHT30;57541;47.408;18.822;2023-04-01T00:19:31;9.07;98.84
70166;SHT30;57541;47.408;18.822;2023-04-01T00:20:05;9.04;98.86
70166;SHT30;57541;47.408;18.822;2023-04-01T00:20:38;9.06;98.81
70166;SHT30;57541;47.408;18.822;2023-04-01T00:21:10;9.07;98.78
70166;SHT30;57541;47.408;18.822;2023-04-01T00:21:41;9.06;98.76
70166;SHT30;57541;47.408;18.822;2023-04-01T00:22:13;9.06;98.72
70166;SHT30;57541;47.408;18.822;2023-04-01T00:22:45;9.07;98.86
70166;SHT30;57541;47.408;18.822;2023-04-01T00:23:17;9.06;98.78
70166;SHT30;57541;47.408;18.822;2023-04-01T00:23:50;9.09;98.73
70166;SHT30;57541;47.408;18.822;2023-04-01T00:24:22;9.07;98.67
70166;SHT30;57541;47.408;18.822;2023-04-01T00:24:54;9.07;98.79
70166;SHT30;57541;47.408;18.822;2023-04-01T00:25:26;9.09;98.83
70166;SHT30;57541;47.408;18.822;2023-04-01T00:26:00;9.10;98.77
70166;SHT30;57541;47.408;18.822;2023-04-01T00:26:32;9.12;98.81
70166;SHT30;57541;47.408;18.822;2023-04-01T00:27:04;9.10;98.73
70166;SHT30;57541;47.408;18.822;2023-04-01T00:27:35;9.10;98.82
70166;SHT30;57541;47.408;18.822;2023-04-01T00:28:07;9.07;98.88
70166;SHT30;57541;47.408;18.822;2023-04-01T00:28:40;9.03;98.85
70166;SHT30;57541;47.408;18.822;2023-04-01T00:29:12;9.09;98.89
70166;SHT30;57541;47.408;18.822;2023-04-01T00:29:44;9.07;98.87
70166;SHT30;57541;47.408;18.822;2023-04-01T00:30:17;9.09;98.84
70166;SHT30;57541;47.408;18.822;2023-04-01T00:30:48;9.09;98.83
70166;SHT30;57541;47.408;18.822;2023-04-01T00:31:20;9.07;98.79
70166;SHT30;57541;47.408;18.822;2023-04-01T00:31:52;9.06;98.86
70166;SHT30;57541;47.408;18.822;2023-04-01T00:32:24;9.03;98.92
70166;SHT30;57541;47.408;18.822;2023-04-01T00:32:56;9.00;98.96
70166;SHT30;57541;47.408;18.822;2023-04-01T00:33:28;9.04;99.05
70166;SHT30;57541;47.408;18.822;2023-04-01T00:33:59;9.04;99.09
70166;SHT30;57541;47.408;18.822;2023-04-01T00:34:31;9.03;99.02
70166;SHT30;57541;47.408;18.822;2023-04-01T00:35:03;9.06;99.09
70166;SHT30;57541;47.408;18.822;2023-04-01T00:35:35;9.06;99.05
70166;SHT30;57541;47.408;18.822;2023-04-01T00:36:14;9.04;99.02
70166;SHT30;57541;47.408;18.822;2023-04-01T00:36:47;9.06;99.04
70166;SHT30;57541;47.408;18.822;2023-04-01T00:37:20;9.02;99.01
70166;SHT30;57541;47.408;18.822;2023-04-01T00:37:52;9.02;99.06
70166;SHT30;57541;47.408;18.822;2023-04-01T00:38:24;9.03;99.12
70166;SHT30;57541;47.408;18.822;2023-04-01T00:38:57;9.03;99.14
70166;SHT30;57541;47.408;18.822;2023-04-01T00:39:31;9.09;99.08
70166;SHT30;57541;47.408;18.822;2023-04-01T00:40:05;9.09;99.00
70166;SHT30;57541;47.408;18.822;2023-04-01T00:40:43;9.10;98.95
70166;SHT30;57541;47.408;18.822;2023-04-01T00:41:16;9.09;98.94
70166;SHT30;57541;47.408;18.822;2023-04-01T00:41:48;9.12;98.96
70166;SHT30;57541;47.408;18.822;2023-04-01T00:42:20;9.13;98.89
70166;SHT30;57541;47.408;18.822;2023-04-01T00:42:51;9.12;98.85
70166;SHT30;57541;47.408;18.822;2023-04-01T00:43:23;9.13;98.80
70166;SHT30;57541;47.408;18.822;2023-04-01T00:44:18;9.09;98.84
70166;SHT30;57541;47.408;18.822;2023-04-01T00:44:52;9.09;98.89
70166;SHT30;57541;47.408;18.822;2023-04-01T00:45:36;9.06;99.09
70166;SHT30;57541;47.408;18.822;2023-04-01T00:46:08;9.07;98.88
70166;SHT30;57541;47.408;18.822;2023-04-01T00:46:40;9.04;98.76
70166;SHT30;57541;47.408;18.822;2023-04-01T00:47:12;9.02;98.91
70166;SHT30;57541;47.408;18.822;2023-04-01T00:47:44;9.03;98.95
70166;SHT30;57541;47.408;18.822;2023-04-01T00:48:18;9.04;98.94
70166;SHT30;57541;47.408;18.822;2023-04-01T00:48:54;9.04;98.84
70166;SHT30;57541;47.408;18.822;2023-04-01T00:49:29;9.09;98.74
70166;SHT30;57541;47.408;18.822;2023-04-01T00:50:02;9.14;98.77
70166;SHT30;57541;47.408;18.822;2023-04-01T00:50:34;9.13;98.66
70166;SHT30;57541;47.408;18.822;2023-04-01T00:51:15;9.19;98.60
70166;SHT30;57541;47.408;18.822;2023-04-01T00:51:48;9.14;98.57
70166;SHT30;57541;47.408;18.822;2023-04-01T00:52:23;9.17;98.69
70166;SHT30;57541;47.408;18.822;2023-04-01T00:52:55;9.24;98.72
70166;SHT30;57541;47.408;18.822;2023-04-01T00:53:28;9.26;98.58
70166;SHT30;57541;47.408;18.822;2023-04-01T00:54:00;9.27;98.53
70166;SHT30;57541;47.408;18.822;2023-04-01T00:54:35;9.24;98.56
70166;SHT30;57541;47.408;18.822;2023-04-01T00:55:09;9.34;98.48
70166;SHT30;57541;47.408;18.822;2023-04-01T00:55:47;9.31;98.36
70166;SHT30;57541;47.408;18.822;2023-04-01T00:57:34;9.24;98.54
70166;SHT30;57541;47.408;18.822;2023-04-01T00:58:12;9.30;98.62
70166;SHT30;57541;47.408;18.822;2023-04-01T00:58:49;9.30;98.75
70166;SHT30;57541;47.408;18.822;2023-04-01T00:59:25;9.31;98.66
70166;SHT30;57541;47.408;18.822;2023-04-01T00:59:58;9.34;98.46
70166;SHT30;57541;47.408;18.822;2023-04-01T01:00:30;9.24;98.33
70166;SHT30;57541;47.408;18.822;2023-04-01T01:01:03;9.22;98.49
70166;SHT30;57541;47.408;18.822;2023-04-01T01:01:35;9.16;98.57
70166;SHT30;57541;47.408;18.822;2023-04-01T01:02:09;9.22;98.71
70166;SHT30;57541;47.408;18.822;2023-04-01T01:02:42;9.14;98.65
70166;SHT30;57541;47.408;18.822;2023-04-01T01:03:15;9.22;98.64
70166;SHT30;57541;47.408;18.822;2023-04-01T01:03:47;9.19;98.82
70166;SHT30;57541;47.408;18.822;2023-04-01T01:04:27;9.24;98.79
70166;SHT30;57541;47.408;18.822;2023-04-01T01:04:59;9.20;98.56
70166;SHT30;57541;47.408;18.822;2023-04-01T01:05:45;9.19;98.76
70166;SHT30;57541;47.408;18.822;2023-04-01T01:06:50;9.24;98.69
70166;SHT30;57541;47.408;18.822;2023-04-01T01:07:38;9.23;98.62
70166;SHT30;57541;47.408;18.822;2023-04-01T01:09:36;9.17;98.74
70166;SHT30;57541;47.408;18.822;2023-04-01T01:10:32;9.24;98.74
70166;SHT30;57541;47.408;18.822;2023-04-01T01:11:08;9.24;98.58
70166;SHT30;57541;47.408;18.822;2023-04-01T01:11:44;9.33;98.61
70166;SHT30;57541;47.408;18.822;2023-04-01T01:12:28;9.30;98.55
70166;SHT30;57541;47.408;18.822;2023-04-01T01:13:18;9.28;98.57
70166;SHT30;57541;47.408;18.822;2023-04-01T01:15:44;9.27;98.61
70166;SHT30;57541;47.408;18.822;2023-04-01T01:16:25;9.28;98.74
70166;SHT30;57541;47.408;18.822;2023-04-01T01:17:06;9.26;98.58
70166;SHT30;57541;47.408;18.822;2023-04-01T01:19:32;9.27;98.78
70166;SHT30;57541;47.408;18.822;2023-04-01T01:20:35;9.34;98.56
70166;SHT30;57541;47.408;18.822;2023-04-01T01:22:12;9.33;98.58
70166;SHT30;57541;47.408;18.822;2023-04-01T01:24:29;9.28;98.68
70166;SHT30;57541;47.408;18.822;2023-04-01T01:27:41;9.13;98.77
70166;SHT30;57541;47.408;18.822;2023-04-01T01:30:14;9.14;98.73
70166;SHT30;57541;47.408;18.822;2023-04-01T01:33:35;9.17;98.74
70166;SHT30;57541;47.408;18.822;2023-04-01T01:35:50;9.19;98.84
70166;SHT30;57541;47.408;18.822;2023-04-01T01:36:26;9.19;98.93
70166;SHT30;57541;47.408;18.822;2023-04-01T01:37:05;9.16;98.86
70166;SHT30;57541;47.408;18.822;2023-04-01T01:37:40;9.23;98.75
70166;SHT30;57541;47.408;18.822;2023-04-01T01:38:16;9.23;98.84
70166;SHT30;57541;47.408;18.822;2023-04-01T01:38:48;9.26;98.83
70166;SHT30;57541;47.408;18.822;2023-04-01T01:39:26;9.27;98.81
70166;SHT30;57541;47.408;18.822;2023-04-01T01:40:03;9.33;98.73
70166;SHT30;57541;47.408;18.822;2023-04-01T01:40:35;9.28;98.70
70166;SHT30;57541;47.408;18.822;2023-04-01T01:41:09;9.26;98.71
70166;SHT30;57541;47.408;18.822;2023-04-01T01:41:43;9.24;98.70
70166;SHT30;57541;47.408;18.822;2023-04-01T01:42:18;9.23;98.73
70166;SHT30;57541;47.408;18.822;2023-04-01T01:42:55;9.14;98.69
70166;SHT30;57541;47.408;18.822;2023-04-01T01:43:31;9.09;98.76
70166;SHT30;57541;47.408;18.822;2023-04-01T01:44:05;9.12;98.87
70166;SHT30;57541;47.408;18.822;2023-04-01T01:44:39;9.16;98.90
70166;SHT30;57541;47.408;18.822;2023-04-01T01:45:14;9.20;98.88
70166;SHT30;57541;47.408;18.822;2023-04-01T01:45:53;9.20;98.94
70166;SHT30;57541;47.408;18.822;2023-04-01T01:46:27;9.17;98.88
70166;SHT30;57541;47.408;18.822;2023-04-01T01:47:00;9.24;98.82
70166;SHT30;57541;47.408;18.822;2023-04-01T01:47:33;9.28;98.82
70166;SHT30;57541;47.408;18.822;2023-04-01T01:48:07;9.31;98.75
70166;SHT30;57541;47.408;18.822;2023-04-01T01:48:41;9.26;98.55
70166;SHT30;57541;47.408;18.822;2023-04-01T01:49:14;9.23;98.77
70166;SHT30;57541;47.408;18.822;2023-04-01T01:49:46;9.20;98.68
70166;SHT30;57541;47.408;18.822;2023-04-01T01:50:19;9.27;98.78
70166;SHT30;57541;47.408;18.822;2023-04-01T01:50:53;9.26;98.68
70166;SHT30;57541;47.408;18.822;2023-04-01T01:51:27;9.30;98.69
70166;SHT30;57541;47.408;18.822;2023-04-01T01:51:59;9.31;98.67
70166;SHT30;57541;47.408;18.822;2023-04-01T01:52:31;9.14;98.44
70166;SHT30;57541;47.408;18.822;2023-04-01T01:53:05;9.14;98.66
70166;SHT30;57541;47.408;18.822;2023-04-01T01:53:37;9.13;98.74
70166;SHT30;57541;47.408;18.822;2023-04-01T01:54:16;9.13;98.74
70166;SHT30;57541;47.408;18.822;2023-04-01T01:54:52;9.16;98.74
70166;SHT30;57541;47.408;18.822;2023-04-01T01:55:28;9.13;98.84
70166;SHT30;57541;47.408;18.822;2023-04-01T01:56:00;9.10;98.75
70166;SHT30;57541;47.408;18.822;2023-04-01T01:56:34;9.09;98.95
70166;SHT30;57541;47.408;18.822;2023-04-01T01:57:09;9.06;98.91
70166;SHT30;57541;47.408;18.822;2023-04-01T01:57:44;9.07;99.03
70166;SHT30;57541;47.408;18.822;2023-04-01T01:58:23;9.14;98.98
70166;SHT30;57541;47.408;18.822;2023-04-01T01:59:02;9.09;98.95
70166;SHT30;57541;47.408;18.822;2023-04-01T01:59:38;8.97;98.82
70166;SHT30;57541;47.408;18.822;2023-04-01T02:00:12;8.86;99.11
70166;SHT30;57541;47.408;18.822;2023-04-01T02:00:51;9.06;97.60
70166;SHT30;57541;47.408;18.822;2023-04-01T02:01:27;9.12;98.00
70166;SHT30;57541;47.408;18.822;2023-04-01T02:01:59;9.09;98.21
70166;SHT30;57541;47.408;18.822;2023-04-01T02:02:32;9.02;98.24
70166;SHT30;57541;47.408;18.822;2023-04-01T02:03:04;8.97;98.38
70166;SHT30;57541;47.408;18.822;2023-04-01T02:03:39;8.89;98.65
70166;SHT30;57541;47.408;18.822;2023-04-01T02:04:13;8.97;98.34
70166;SHT30;57541;47.408;18.822;2023-04-01T02:04:47;9.03;98.03
70166;SHT30;57541;47.408;18.822;2023-04-01T02:05:21;9.06;98.12
70166;SHT30;57541;47.408;18.822;2023-04-01T02:05:57;9.10;97.83
70166;SHT30;57541;47.408;18.822;2023-04-01T02:06:33;9.06;97.58
70166;SHT30;57541;47.408;18.822;2023-04-01T02:07:15;9.04;98.08
70166;SHT30;57541;47.408;18.822;2023-04-01T02:08:11;9.10;98.05
70166;SHT30;57541;47.408;18.822;2023-04-01T02:09:03;9.09;98.07
70166;SHT30;57541;47.408;18.822;2023-04-01T02:09:37;9.09;98.40
70166;SHT30;57541;47.408;18.822;2023-04-01T02:10:09;9.09;98.24
70166;SHT30;57541;47.408;18.822;2023-04-01T02:10:44;9.12;98.31
70166;SHT30;57541;47.408;18.822;2023-04-01T02:11:18;9.10;98.23
70166;SHT30;57541;47.408;18.822;2023-04-01T02:12:02;9.13;98.26
70166;SHT30;57541;47.408;18.822;2023-04-01T02:12:36;9.10;98.21
70166;SHT30;57541;47.408;18.822;2023-04-01T02:13:23;9.06;98.21
70166;SHT30;57541;47.408;18.822;2023-04-01T02:14:03;9.06;98.29
70166;SHT30;57541;47.408;18.822;2023-04-01T02:15:00;9.09;98.51
70166;SHT30;57541;47.408;18.822;2023-04-01T02:15:41;9.04;98.45
70166;SHT30;57541;47.408;18.822;2023-04-01T02:16:21;9.09;98.62
70166;SHT30;57541;47.408;18.822;2023-04-01T02:16:58;9.12;98.49
70166;SHT30;57541;47.408;18.822;2023-04-01T02:17:32;9.06;98.29
70166;SHT30;57541;47.408;18.822;2023-04-01T02:18:05;9.07;98.38
70166;SHT30;57541;47.408;18.822;2023-04-01T02:18:38;9.03;98.43
70166;SHT30;57541;47.408;18.822;2023-04-01T02:19:11;9.03;98.24
70166;SHT30;57541;47.408;18.822;2023-04-01T02:19:57;9.02;98.20
70166;SHT30;57541;47.408;18.822;2023-04-01T02:20:31;9.02;98.45
70166;SHT30;57541;47.408;18.822;2023-04-01T02:21:04;9.02;98.42
70166;SHT30;57541;47.408;18.822;2023-04-01T02:21:37;9.06;98.37
70166;SHT30;57541;47.408;18.822;2023-04-01T02:22:13;9.09;98.49
70166;SHT30;57541;47.408;18.822;2023-04-01T02:22:54;9.10;98.40
70166;SHT30;57541;47.408;18.822;2023-04-01T02:23:27;9.06;98.29
70166;SHT30;57541;47.408;18.822;2023-04-01T02:24:02;9.02;98.36
70166;SHT30;57541;47.408;18.822;2023-04-01T02:24:37;9.03;98.33
70166;SHT30;57541;47.408;18.822;2023-04-01T02:25:15;9.03;98.39
70166;SHT30;57541;47.408;18.822;2023-04-01T02:25:47;9.06;98.31
70166;SHT30;57541;47.408;18.822;2023-04-01T02:26:19;9.06;98.31
70166;SHT30;57541;47.408;18.822;2023-04-01T02:26:52;9.04;98.34
70166;SHT30;57541;47.408;18.822;2023-04-01T02:27:24;9.04;98.18
70166;SHT30;57541;47.408;18.822;2023-04-01T02:27:57;9.04;98.31
70166;SHT30;57541;47.408;18.822;2023-04-01T02:28:31;9.03;98.29
70166;SHT30;57541;47.408;18.822;2023-04-01T02:29:05;9.06;98.21
70166;SHT30;57541;47.408;18.822;2023-04-01T02:29:37;9.00;98.14
70166;SHT30;57541;47.408;18.822;2023-04-01T02:30:09;8.99;98.18
70166;SHT30;57541;47.408;18.822;2023-04-01T02:30:42;8.92;98.13
70166;SHT30;57541;47.408;18.822;2023-04-01T02:31:15;8.92;98.19
70166;SHT30;57541;47.408;18.822;2023-04-01T02:31:47;8.85;98.14
70166;SHT30;57541;47.408;18.822;2023-04-01T02:32:20;8.80;98.30
70166;SHT30;57541;47.408;18.822;2023-04-01T02:32:53;8.80;98.39
70166;SHT30;57541;47.408;18.822;2023-04-01T02:33:26;8.72;98.34
70166;SHT30;57541;47.408;18.822;2023-04-01T02:33:58;8.72;98.46
70166;SHT30;57541;47.408;18.822;2023-04-01T02:34:30;8.75;98.57
70166;SHT30;57541;47.408;18.822;2023-04-01T02:35:02;8.66;98.45
70166;SHT30;57541;47.408;18.822;2023-04-01T02:35:37;8.72;98.50
70166;SHT30;57541;47.408;18.822;2023-04-01T02:36:13;8.65;98.41
70166;SHT30;57541;47.408;18.822;2023-04-01T02:36:47;8.68;98.44
70166;SHT30;57541;47.408;18.822;2023-04-01T02:37:19;8.71;98.41
70166;SHT30;57541;47.408;18.822;2023-04-01T02:37:52;8.66;98.36
70166;SHT30;57541;47.408;18.822;2023-04-01T02:38:25;8.73;98.38
70166;SHT30;57541;47.408;18.822;2023-04-01T02:38:57;8.62;98.19
70166;SHT30;57541;47.408;18.822;2023-04-01T02:39:33;8.49;98.26
70166;SHT30;57541;47.408;18.822;2023-04-01T02:40:06;8.49;98.57
70166;SHT30;57541;47.408;18.822;2023-04-01T02:40:48;8.44;98.50
70166;SHT30;57541;47.408;18.822;2023-04-01T02:41:20;8.46;98.62
70166;SHT30;57541;47.408;18.822;2023-04-01T02:41:52;8.44;98.59
70166;SHT30;57541;47.408;18.822;2023-04-01T02:42:24;8.41;98.63
70166;SHT30;57541;47.408;18.822;2023-04-01T02:42:55;8.44;98.67
70166;SHT30;57541;47.408;18.822;2023-04-01T02:43:27;8.45;98.39
70166;SHT30;57541;47.408;18.822;2023-04-01T02:43:59;8.42;98.31
70166;SHT30;57541;47.408;18.822;2023-04-01T02:44:31;8.46;98.31
70166;SHT30;57541;47.408;18.822;2023-04-01T02:45:03;8.40;98.44
70166;SHT30;57541;47.408;18.822;2023-04-01T02:45:35;8.42;98.51
70166;SHT30;57541;47.408;18.822;2023-04-01T02:46:07;8.48;98.48
70166;SHT30;57541;47.408;18.822;2023-04-01T02:46:39;8.49;98.35
70166;SHT30;57541;47.408;18.822;2023-04-01T02:47:10;8.46;98.33
70166;SHT30;57541;47.408;18.822;2023-04-01T02:47:42;8.42;98.31
70166;SHT30;57541;47.408;18.822;2023-04-01T02:48:14;8.40;98.47
70166;SHT30;57541;47.408;18.822;2023-04-01T02:48:46;8.41;98.66
70166;SHT30;57541;47.408;18.822;2023-04-01T02:49:17;8.41;98.48
70166;SHT30;57541;47.408;18.822;2023-04-01T02:49:49;8.34;98.36
70166;SHT30;57541;47.408;18.822;2023-04-01T02:50:20;8.38;98.25
70166;SHT30;57541;47.408;18.822;2023-04-01T02:50:53;8.31;98.53
70166;SHT30;57541;47.408;18.822;2023-04-01T02:51:26;8.35;98.73
70166;SHT30;57541;47.408;18.822;2023-04-01T02:51:57;8.34;98.57
70166;SHT30;57541;47.408;18.822;2023-04-01T02:52:29;8.28;98.59
70166;SHT30;57541;47.408;18.822;2023-04-01T02:53:01;8.30;98.61
70166;SHT30;57541;47.408;18.822;2023-04-01T02:53:35;8.34;98.53
70166;SHT30;57541;47.408;18.822;2023-04-01T02:54:06;8.23;98.37
70166;SHT30;57541;47.408;18.822;2023-04-01T02:54:38;8.16;98.80
70166;SHT30;57541;47.408;18.822;2023-04-01T02:55:10;8.16;99.01
70166;SHT30;57541;47.408;18.822;2023-04-01T02:55:41;8.14;99.02
70166;SHT30;57541;47.408;18.822;2023-04-01T02:56:13;8.16;99.04
70166;SHT30;57541;47.408;18.822;2023-04-01T02:56:45;8.24;99.06
70166;SHT30;57541;47.408;18.822;2023-04-01T02:57:17;8.24;98.93
70166;SHT30;57541;47.408;18.822;2023-04-01T02:57:49;8.21;98.93
70166;SHT30;57541;47.408;18.822;2023-04-01T02:58:20;8.20;98.78
70166;SHT30;57541;47.408;18.822;2023-04-01T02:58:53;8.21;98.89
70166;SHT30;57541;47.408;18.822;2023-04-01T02:59:25;8.28;99.06
70166;SHT30;57541;47.408;18.822;2023-04-01T02:59:56;8.30;99.01
70166;SHT30;57541;47.408;18.822;2023-04-01T03:00:28;8.25;98.73
70166;SHT30;57541;47.408;18.822;2023-04-01T03:01:00;8.20;98.68
70166;SHT30;57541;47.408;18.822;2023-04-01T03:01:32;8.28;98.77
70166;SHT30;57541;47.408;18.822;2023-04-01T03:02:03;8.24;98.78
70166;SHT30;57541;47.408;18.822;2023-04-01T03:02:35;8.27;98.83
70166;SHT30;57541;47.408;18.822;2023-04-01T03:03:08;8.24;98.79
70166;SHT30;57541;47.408;18.822;2023-04-01T03:03:40;8.14;98.72
70166;SHT30;57541;47.408;18.822;2023-04-01T03:04:12;8.14;98.91
70166;SHT30;57541;47.408;18.822;2023-04-01T03:04:44;8.07;99.03
70166;SHT30;57541;47.408;18.822;2023-04-01T03:05:15;8.08;98.94
70166;SHT30;57541;47.408;18.822;2023-04-01T03:05:47;8.14;98.84
70166;SHT30;57541;47.408;18.822;2023-04-01T03:06:19;8.16;98.91
70166;SHT30;57541;47.408;18.822;2023-04-01T03:06:50;8.21;98.84
70166;SHT30;57541;47.408;18.822;2023-04-01T03:07:23;8.18;98.68
70166;SHT30;57541;47.408;18.822;2023-04-01T03:07:54;8.17;98.94
70166;SHT30;57541;47.408;18.822;2023-04-01T03:08:26;8.18;98.97
70166;SHT30;57541;47.408;18.822;2023-04-01T03:08:58;8.18;99.02
70166;SHT30;57541;47.408;18.822;2023-04-01T03:09:29;8.18;99.03
70166;SHT30;57541;47.408;18.822;2023-04-01T03:10:01;8.23;99.11
70166;SHT30;57541;47.408;18.822;2023-04-01T03:10:33;8.16;99.09
70166;SHT30;57541;47.408;18.822;2023-04-01T03:11:05;8.16;99.16
70166;SHT30;57541;47.408;18.822;2023-04-01T03:11:37;8.20;99.26
70166;SHT30;57541;47.408;18.822;2023-04-01T03:12:09;8.17;99.23
70166;SHT30;57541;47.408;18.822;2023-04-01T03:12:40;8.16;99.19
70166;SHT30;57541;47.408;18.822;2023-04-01T03:13:12;8.14;99.19
70166;SHT30;57541;47.408;18.822;2023-04-01T03:13:44;8.14;99.20
70166;SHT30;57541;47.408;18.822;2023-04-01T03:14:15;8.17;99.11
70166;SHT30;57541;47.408;18.822;2023-04-01T03:14:47;8.23;99.12
70166;SHT30;57541;47.408;18.822;2023-04-01T03:15:19;8.25;99.00
70166;SHT30;57541;47.408;18.822;2023-04-01T03:15:50;8.24;98.99
70166;SHT30;57541;47.408;18.822;2023-04-01T03:16:23;8.27;98.94
70166;SHT30;57541;47.408;18.822;2023-04-01T03:16:54;8.23;98.86
70166;SHT30;57541;47.408;18.822;2023-04-01T03:17:26;8.24;98.89
70166;SHT30;57541;47.408;18.822;2023-04-01T03:17:58;8.27;98.90
70166;SHT30;57541;47.408;18.822;2023-04-01T03:18:30;8.30;98.99
70166;SHT30;57541;47.408;18.822;2023-04-01T03:19:01;8.30;98.95
70166;SHT30;57541;47.408;18.822;2023-04-01T03:19:33;8.33;98.83
70166;SHT30;57541;47.408;18.822;2023-04-01T03:20:06;8.30;98.77
70166;SHT30;57541;47.408;18.822;2023-04-01T03:20:39;8.21;98.80
70166;SHT30;57541;47.408;18.822;2023-04-01T03:21:22;8.28;98.84
70166;SHT30;57541;47.408;18.822;2023-04-01T03:21:54;8.31;98.77
70166;SHT30;57541;47.408;18.822;2023-04-01T03:22:25;8.27;98.66
70166;SHT30;57541;47.408;18.822;2023-04-01T03:22:57;8.28;98.60
70166;SHT30;57541;47.408;18.822;2023-04-01T03:23:29;8.21;98.65
70166;SHT30;57541;47.408;18.822;2023-04-01T03:24:00;8.27;98.70
70166;SHT30;57541;47.408;18.822;2023-04-01T03:24:32;8.28;98.74
70166;SHT30;57541;47.408;18.822;2023-04-01T03:25:05;8.25;98.83
70166;SHT30;57541;47.408;18.822;2023-04-01T03:25:37;8.24;98.75
70166;SHT30;57541;47.408;18.822;2023-04-01T03:26:09;8.25;98.45
70166;SHT30;57541;47.408;18.822;2023-04-01T03:26:40;8.18;98.38
70166;SHT30;57541;47.408;18.822;2023-04-01T03:27:12;8.16;98.61
70166;SHT30;57541;47.408;18.822;2023-04-01T03:27:44;8.07;98.53
70166;SHT30;57541;47.408;18.822;2023-04-01T03:28:16;8.08;98.57
70166;SHT30;57541;47.408;18.822;2023-04-01T03:28:47;7.98;98.67
70166;SHT30;57541;47.408;18.822;2023-04-01T03:29:19;7.86;98.50
70166;SHT30;57541;47.408;18.822;2023-04-01T03:29:51;7.77;98.35
70166;SHT30;57541;47.408;18.822;2023-04-01T03:30:22;7.73;98.54
70166;SHT30;57541;47.408;18.822;2023-04-01T03:30:54;7.82;98.43
70166;SHT30;57541;47.408;18.822;2023-04-01T03:31:26;7.82;98.98
70166;SHT30;57541;47.408;18.822;2023-04-01T03:31:58;7.80;98.83
70166;SHT30;57541;47.408;18.822;2023-04-01T03:32:30;7.80;98.90
70166;SHT30;57541;47.408;18.822;2023-04-01T03:33:02;7.86;98.88
70166;SHT30;57541;47.408;18.822;2023-04-01T03:33:34;7.87;98.73
70166;SHT30;57541;47.408;18.822;2023-04-01T03:34:06;7.75;98.66
70166;SHT30;57541;47.408;18.822;2023-04-01T03:34:37;7.70;98.71
70166;SHT30;57541;47.408;18.822;2023-04-01T03:35:09;7.73;98.84
70166;SHT30;57541;47.408;18.822;2023-04-01T03:35:41;7.80;98.75
70166;SHT30;57541;47.408;18.822;2023-04-01T03:36:13;7.79;98.83
70166;SHT30;57541;47.408;18.822;2023-04-01T03:36:45;7.82;98.82
70166;SHT30;57541;47.408;18.822;2023-04-01T03:37:17;7.76;98.63
70166;SHT30;57541;47.408;18.822;2023-04-01T03:37:51;7.75;98.89
70166;SHT30;57541;47.408;18.822;2023-04-01T03:38:22;7.67;98.98
70166;SHT30;57541;47.408;18.822;2023-04-01T03:38:54;7.76;98.97
70166;SHT30;57541;47.408;18.822;2023-04-01T03:39:26;7.80;98.76
70166;SHT30;57541;47.408;18.822;2023-04-01T03:39:58;7.69;98.74
70166;SHT30;57541;47.408;18.822;2023-04-01T03:40:29;7.66;98.88
70166;SHT30;57541;47.408;18.822;2023-04-01T03:41:01;7.69;99.04
70166;SHT30;57541;47.408;18.822;2023-04-01T03:41:35;7.70;99.15
70166;SHT30;57541;47.408;18.822;2023-04-01T03:42:07;7.79;99.13
70166;SHT30;57541;47.408;18.822;2023-04-01T03:42:39;7.79;99.21
70166;SHT30;57541;47.408;18.822;2023-04-01T03:43:11;7.75;99.05
70166;SHT30;57541;47.408;18.822;2023-04-01T03:43:44;7.75;98.88
70166;SHT30;57541;47.408;18.822;2023-04-01T03:44:16;7.61;98.71
70166;SHT30;57541;47.408;18.822;2023-04-01T03:44:47;7.66;98.66
70166;SHT30;57541;47.408;18.822;2023-04-01T03:45:19;7.66;98.72
70166;SHT30;57541;47.408;18.822;2023-04-01T03:45:51;7.65;98.64
70166;SHT30;57541;47.408;18.822;2023-04-01T03:46:23;7.61;98.62
70166;SHT30;57541;47.408;18.822;2023-04-01T03:46:54;7.58;98.69
70166;SHT30;57541;47.408;18.822;2023-04-01T03:47:26;7.59;98.97
70166;SHT30;57541;47.408;18.822;2023-04-01T03:47:58;7.56;99.11
70166;SHT30;57541;47.408;18.822;2023-04-01T03:48:29;7.56;98.95
70166;SHT30;57541;47.408;18.822;2023-04-01T03:49:02;7.63;98.92
70166;SHT30;57541;47.408;18.822;2023-04-01T03:49:34;7.62;98.83
70166;SHT30;57541;47.408;18.822;2023-04-01T03:50:07;7.67;98.73
70166;SHT30;57541;47.408;18.822;2023-04-01T03:50:39;7.61;98.58
70166;SHT30;57541;47.408;18.822;2023-04-01T03:51:10;7.56;98.70
70166;SHT30;57541;47.408;18.822;2023-04-01T03:51:43;7.49;98.74
70166;SHT30;57541;47.408;18.822;2023-04-01T03:52:15;7.58;98.92